createdAt,value
2023-01-09T00:00:33.439Z,99195.19
2023-01-09T00:02:59.913Z,99200.53
2023-01-09T00:05:26.481Z,99204.69
2023-01-09T00:07:52.984Z,99193.34
2023-01-09T00:10:20.524Z,99198.66
2023-01-09T00:12:47.067Z,99201.25
2023-01-09T00:15:14.292Z,99200.44
2023-01-09T00:17:41.559Z,99202.38
2023-01-09T00:20:09.914Z,99196.28
2023-01-09T00:22:37.701Z,99201.34
2023-01-09T00:25:04.593Z,99203.69
2023-01-09T00:27:32.690Z,99203.94
2023-01-09T00:29:59.259Z,99195.53
2023-01-09T00:32:26.012Z,99199.22
2023-01-09T00:34:53.257Z,99196.72
2023-01-09T00:37:19.812Z,99198.56
2023-01-09T00:39:46.311Z,99195.88
2023-01-09T00:42:17.920Z,99201.38
2023-01-09T00:44:52.069Z,99202.31
2023-01-09T00:47:23.857Z,99206.75
2023-01-09T00:49:52.071Z,99216.22
2023-01-09T00:52:19.379Z,99207.25
2023-01-09T00:54:46.404Z,99212.41
2023-01-09T00:57:14.155Z,99220.25
2023-01-09T00:59:42.029Z,99232.44
2023-01-09T01:02:09.006Z,99224.59
2023-01-09T01:05:07.993Z,99234.09
2023-01-09T01:07:41.519Z,99245.50
2023-01-09T01:10:12.022Z,99245.25
2023-01-09T01:12:40.230Z,99245.09
2023-01-09T01:15:07.739Z,99245.75
2023-01-09T01:17:36.636Z,99249.19
2023-01-09T01:20:05.627Z,99249.59
2023-01-09T01:22:32.310Z,99255.41
2023-01-09T01:24:58.868Z,99251.16
2023-01-09T01:27:25.591Z,99258.94
2023-01-09T01:29:52.551Z,99258.78
2023-01-09T01:32:19.267Z,99256.25
2023-01-09T01:34:47.582Z,99257.13
2023-01-09T01:37:14.308Z,99259.44
2023-01-09T01:39:41.320Z,99262.19
2023-01-09T01:42:07.890Z,99265.44
2023-01-09T01:45:06.355Z,99259.53
2023-01-09T01:47:52.766Z,99260.25
2023-01-09T01:50:28.993Z,99260.78
2023-01-09T01:53:07.618Z,99272.78
2023-01-09T01:55:36.347Z,99282.09
2023-01-09T01:58:05.632Z,99276.09
2023-01-09T02:00:36.971Z,99290.63
2023-01-09T02:03:06.148Z,99294.88
2023-01-09T02:05:33.302Z,99287.25
2023-01-09T02:08:00.135Z,99285.53
2023-01-09T02:10:26.852Z,99286.63
2023-01-09T02:12:53.537Z,99295.28
2023-01-09T02:15:20.827Z,99296.25
2023-01-09T02:18:05.760Z,99298.78
2023-01-09T02:21:09.547Z,99305.94
2023-01-09T02:23:42.638Z,99295.03
2023-01-09T02:26:34.086Z,99285.78
2023-01-09T02:29:03.561Z,99284.09
2023-01-09T02:31:39.086Z,99290.34
2023-01-09T02:34:35.034Z,99287.75
2023-01-09T02:37:37.263Z,99290.25
2023-01-09T02:40:27.268Z,99288.59
2023-01-09T02:42:55.657Z,99284.91
2023-01-09T02:45:22.228Z,99303.00
2023-01-09T02:47:48.841Z,99301.25
2023-01-09T02:50:30.965Z,99307.84
2023-01-09T02:53:17.826Z,99307.69
2023-01-09T02:55:53.438Z,99307.50
2023-01-09T02:59:04.405Z,99315.34
2023-01-09T03:02:17.391Z,99307.75
2023-01-09T03:04:59.937Z,99305.44
2023-01-09T03:07:32.630Z,99306.16
2023-01-09T03:10:08.447Z,99308.97
2023-01-09T03:12:37.699Z,99305.66
2023-01-09T03:15:06.725Z,99312.75
2023-01-09T03:17:40.433Z,99316.06
2023-01-09T03:20:10.397Z,99314.41
2023-01-09T03:22:38.822Z,99310.41
2023-01-09T03:25:06.077Z,99302.13
2023-01-09T03:27:32.758Z,99320.38
2023-01-09T03:29:59.709Z,99313.69
2023-01-09T03:32:27.835Z,99320.69
2023-01-09T03:34:54.389Z,99325.16
2023-01-09T03:37:20.998Z,99328.81
2023-01-09T03:39:47.446Z,99336.63
2023-01-09T03:42:13.917Z,99339.38
2023-01-09T03:44:40.712Z,99341.22
2023-01-09T03:47:07.282Z,99343.78
2023-01-09T03:49:33.780Z,99342.13
2023-01-09T03:52:00.252Z,99337.84
2023-01-09T03:54:26.784Z,99335.59
2023-01-09T03:56:53.319Z,99334.69
2023-01-09T03:59:19.855Z,99336.75
2023-01-09T04:01:46.421Z,99343.69
2023-01-09T04:04:12.997Z,99336.97
2023-01-09T04:06:39.984Z,99343.13
2023-01-09T04:09:06.500Z,99350.03
2023-01-09T04:11:33.006Z,99350.03
2023-01-09T04:14:01.882Z,99349.84
2023-01-09T04:16:28.756Z,99346.53
2023-01-09T04:18:55.314Z,99352.75
2023-01-09T04:21:21.935Z,99348.41
2023-01-09T04:23:48.481Z,99356.31
2023-01-09T04:26:15.027Z,99355.69
2023-01-09T04:28:41.587Z,99345.47
2023-01-09T04:31:08.512Z,99360.78
2023-01-09T04:33:35.033Z,99366.09
2023-01-09T04:36:01.644Z,99359.28
2023-01-09T04:38:28.325Z,99372.31
2023-01-09T04:40:54.884Z,99371.47
2023-01-09T04:43:21.551Z,99376.41
2023-01-09T04:45:48.105Z,99372.94
2023-01-09T04:48:14.832Z,99379.28
2023-01-09T04:50:41.396Z,99379.00
2023-01-09T04:53:08.026Z,99372.38
2023-01-09T04:55:34.642Z,99380.19
2023-01-09T04:58:01.151Z,99375.19
2023-01-09T05:00:27.732Z,99380.56
2023-01-09T05:02:54.261Z,99383.28
2023-01-09T05:05:20.901Z,99386.03
2023-01-09T05:07:47.380Z,99386.69
2023-01-09T05:10:13.957Z,99392.63
2023-01-09T05:12:40.533Z,99395.13
2023-01-09T05:15:08.865Z,99404.63
2023-01-09T05:17:35.832Z,99391.56
2023-01-09T05:20:02.382Z,99400.97
2023-01-09T05:22:29.017Z,99403.72
2023-01-09T05:24:55.968Z,99402.66
2023-01-09T05:27:22.525Z,99405.00
2023-01-09T05:29:49.086Z,99407.66
2023-01-09T05:32:15.587Z,99407.75
2023-01-09T05:34:42.081Z,99414.38
2023-01-09T05:37:11.113Z,99409.34
2023-01-09T05:39:37.628Z,99409.25
2023-01-09T05:42:04.208Z,99414.38
2023-01-09T05:44:30.713Z,99403.13
2023-01-09T05:46:57.184Z,99409.34
2023-01-09T05:49:23.826Z,99398.50
2023-01-09T05:51:50.298Z,99401.78
2023-01-09T05:54:16.784Z,99402.59
2023-01-09T05:56:43.262Z,99402.84
2023-01-09T05:59:09.800Z,99405.09
2023-01-09T06:01:36.408Z,99407.16
2023-01-09T06:04:02.993Z,99415.13
2023-01-09T06:06:29.536Z,99415.13
2023-01-09T06:08:56.034Z,99408.47
2023-01-09T06:11:22.562Z,99412.72
2023-01-09T06:13:49.115Z,99415.66
2023-01-09T06:16:15.718Z,99420.16
2023-01-09T06:18:42.295Z,99418.19
2023-01-09T06:21:08.868Z,99413.03
2023-01-09T06:23:35.353Z,99413.72
2023-01-09T06:26:01.932Z,99415.25
2023-01-09T06:28:28.848Z,99422.06
2023-01-09T06:30:57.997Z,99417.75
2023-01-09T06:33:24.575Z,99412.72
2023-01-09T06:35:51.097Z,99410.81
2023-01-09T06:38:17.597Z,99418.66
2023-01-09T06:40:44.157Z,99421.78
2023-01-09T06:43:10.769Z,99413.78
2023-01-09T06:45:37.305Z,99420.94
2023-01-09T06:48:03.924Z,99411.75
2023-01-09T06:50:32.777Z,99415.91
2023-01-09T06:52:59.274Z,99413.03
2023-01-09T06:55:26.502Z,99413.69
2023-01-09T06:57:55.758Z,99410.63
2023-01-09T07:00:22.367Z,99399.66
2023-01-09T07:02:48.951Z,99405.72
2023-01-09T07:05:15.463Z,99402.31
2023-01-09T07:07:41.960Z,99402.53
2023-01-09T07:10:09.699Z,99404.16
2023-01-09T07:12:36.282Z,99403.16
2023-01-09T07:15:03.050Z,99400.09
2023-01-09T07:17:29.549Z,99403.84
2023-01-09T07:19:56.030Z,99406.47
2023-01-09T07:22:22.517Z,99404.06
2023-01-09T07:24:49.140Z,99405.72
2023-01-09T07:27:15.930Z,99403.31
2023-01-09T07:29:42.476Z,99396.31
2023-01-09T07:32:09.052Z,99404.06
2023-01-09T07:34:35.889Z,99408.47
2023-01-09T07:37:02.460Z,99415.38
2023-01-09T07:39:28.993Z,99416.97
2023-01-09T07:41:55.473Z,99415.31
2023-01-09T07:44:22.002Z,99416.22
2023-01-09T07:46:48.502Z,99410.97
2023-01-09T07:49:15.018Z,99424.63
2023-01-09T07:51:43.348Z,99420.47
2023-01-09T07:54:11.416Z,99418.94
2023-01-09T07:56:38.378Z,99405.50
2023-01-09T07:59:04.922Z,99423.03
2023-01-09T08:01:32.017Z,99429.91
2023-01-09T08:03:59.171Z,99434.28
2023-01-09T08:06:25.658Z,99435.19
2023-01-09T08:08:52.181Z,99438.53
2023-01-09T08:11:18.687Z,99428.06
2023-01-09T08:13:45.235Z,99433.34
2023-01-09T08:16:11.789Z,99442.63
2023-01-09T08:18:38.306Z,99435.72
2023-01-09T08:21:04.920Z,99437.25
2023-01-09T08:23:31.456Z,99438.22
2023-01-09T08:25:58.030Z,99434.72
2023-01-09T08:28:24.588Z,99448.56
2023-01-09T08:30:51.279Z,99447.50
2023-01-09T08:33:17.801Z,99449.16
2023-01-09T08:35:45.015Z,99451.00
2023-01-09T08:38:11.639Z,99455.25
2023-01-09T08:40:38.608Z,99456.00
2023-01-09T08:43:23.670Z,99455.09
2023-01-09T08:46:09.242Z,99460.25
2023-01-09T08:48:35.804Z,99470.44
2023-01-09T08:51:02.499Z,99470.28
2023-01-09T08:53:29.747Z,99474.53
2023-01-09T08:55:56.220Z,99483.94
2023-01-09T08:58:22.777Z,99473.69
2023-01-09T09:00:49.317Z,99485.94
2023-01-09T09:03:17.401Z,99475.75
2023-01-09T09:05:46.057Z,99491.25
2023-01-09T09:08:13.292Z,99493.81
2023-01-09T09:10:39.792Z,99495.56
2023-01-09T09:13:06.330Z,99495.72
2023-01-09T09:15:34.378Z,99499.81
2023-01-09T09:18:03.411Z,99498.06
2023-01-09T09:20:32.594Z,99501.56
2023-01-09T09:22:59.211Z,99498.06
2023-01-09T09:25:26.625Z,99494.44
2023-01-09T09:27:54.202Z,99500.28
2023-01-09T09:30:20.779Z,99509.72
2023-01-09T09:32:47.366Z,99512.84
2023-01-09T09:35:14.217Z,99511.75
2023-01-09T09:37:40.873Z,99507.06
2023-01-09T09:40:19.774Z,99517.25
2023-01-09T09:43:27.930Z,99517.16
2023-01-09T09:45:59.608Z,99536.09
2023-01-09T09:48:29.215Z,99536.09
2023-01-09T09:51:17.912Z,99541.09
2023-01-09T09:54:00.033Z,99547.97
2023-01-09T09:56:29.135Z,99548.63
2023-01-09T09:59:15.012Z,99542.47
2023-01-09T10:01:49.408Z,99555.38
2023-01-09T10:04:19.574Z,99552.78
2023-01-09T10:06:54.740Z,99566.56
2023-01-09T10:09:41.436Z,99562.28
2023-01-09T10:12:08.243Z,99562.25
2023-01-09T10:14:34.814Z,99567.34
2023-01-09T10:17:30.749Z,99570.53
2023-01-09T10:20:11.822Z,99573.72
2023-01-09T10:22:50.353Z,99568.47
2023-01-09T10:25:30.582Z,99571.81
2023-01-09T10:28:12.250Z,99579.31
2023-01-09T10:30:42.738Z,99567.19
2023-01-09T10:33:26.304Z,99571.53
2023-01-09T10:35:58.814Z,99575.69
2023-01-09T10:38:31.923Z,99578.09
2023-01-09T10:41:07.622Z,99578.06
2023-01-09T10:43:49.283Z,99577.97
2023-01-09T10:46:22.677Z,99583.22
2023-01-09T10:48:53.241Z,99588.97
2023-01-09T10:51:27.768Z,99589.69
2023-01-09T10:53:56.042Z,99587.75
2023-01-09T10:56:37.381Z,99590.34
2023-01-09T10:59:03.884Z,99594.75
2023-01-09T11:01:33.793Z,99599.84
2023-01-09T11:04:02.317Z,99604.88
2023-01-09T11:06:46.805Z,99603.75
2023-01-09T11:09:15.256Z,99609.06
2023-01-09T11:11:42.077Z,99598.88
2023-01-09T11:14:15.886Z,99600.56
2023-01-09T11:16:56.312Z,99610.16
2023-01-09T11:19:24.138Z,99610.28
2023-01-09T11:21:50.781Z,99607.56
2023-01-09T11:24:23.896Z,99605.03
2023-01-09T11:26:53.785Z,99613.56
2023-01-09T11:29:24.660Z,99606.84
2023-01-09T11:31:56.895Z,99604.34
2023-01-09T11:34:26.398Z,99605.28
2023-01-09T11:36:54.799Z,99612.19
2023-01-09T11:39:26.523Z,99620.00
2023-01-09T11:41:55.743Z,99619.88
2023-01-09T11:44:22.787Z,99621.69
2023-01-09T11:46:49.408Z,99618.34
2023-01-09T11:49:23.603Z,99623.50
2023-01-09T11:52:19.914Z,99634.00
2023-01-09T11:55:09.174Z,99629.88
2023-01-09T11:57:35.733Z,99641.44
2023-01-09T12:00:14.029Z,99639.66
2023-01-09T12:03:04.729Z,99651.69
2023-01-09T12:06:08.825Z,99663.78
2023-01-09T12:08:50.640Z,99653.63
2023-01-09T12:11:22.171Z,99656.19
2023-01-09T12:14:00.630Z,99665.78
2023-01-09T12:16:59.392Z,99668.41
2023-01-09T12:19:48.046Z,99678.06
2023-01-09T12:22:43.123Z,99667.28
2023-01-09T12:25:29.314Z,99677.44
2023-01-09T12:28:10.826Z,99667.81
2023-01-09T12:31:05.503Z,99685.28
2023-01-09T12:33:35.125Z,99682.00
2023-01-09T12:36:20.584Z,99687.16
2023-01-09T12:38:57.101Z,99688.97
2023-01-09T12:41:42.948Z,99692.19
2023-01-09T12:44:36.515Z,99689.63
2023-01-09T12:47:40.490Z,99685.19
2023-01-09T12:50:07.098Z,99687.56
2023-01-09T12:52:44.192Z,99690.25
2023-01-09T12:55:23.917Z,99694.97
2023-01-09T12:57:56.245Z,99691.09
2023-01-09T13:00:27.423Z,99692.94
2023-01-09T13:03:12.966Z,99693.59
2023-01-09T13:05:44.317Z,99691.34
2023-01-09T13:08:39.048Z,99695.25
2023-01-09T13:11:20.317Z,99704.03
2023-01-09T13:13:54.429Z,99704.03
2023-01-09T13:16:27.095Z,99713.72
2023-01-09T13:19:03.634Z,99719.88
2023-01-09T13:21:30.979Z,99723.31
2023-01-09T13:24:19.206Z,99724.19
2023-01-09T13:26:51.288Z,99725.88
2023-01-09T13:29:40.487Z,99740.53
2023-01-09T13:32:51.544Z,99742.06
2023-01-09T13:35:18.041Z,99746.47
2023-01-09T13:37:51.819Z,99757.56
2023-01-09T13:40:21.262Z,99749.81
2023-01-09T13:43:09.986Z,99740.19
2023-01-09T13:45:39.457Z,99754.13
2023-01-09T13:48:10.089Z,99760.91
2023-01-09T13:50:40.908Z,99759.22
2023-01-09T13:53:19.823Z,99761.75
2023-01-09T13:55:58.902Z,99763.47
2023-01-09T13:58:54.338Z,99766.22
2023-01-09T14:01:39.890Z,99779.78
2023-01-09T14:04:14.668Z,99780.75
2023-01-09T14:06:41.508Z,99784.22
2023-01-09T14:09:21.509Z,99789.31
2023-01-09T14:11:48.975Z,99787.72
2023-01-09T14:14:33.234Z,99809.88
2023-01-09T14:17:03.500Z,99809.72
2023-01-09T14:19:37.388Z,99813.94
2023-01-09T14:22:05.710Z,99818.03
2023-01-09T14:24:47.131Z,99825.75
2023-01-09T14:28:03.517Z,99837.75
2023-01-09T14:30:38.733Z,99842.78
2023-01-09T14:33:26.721Z,99849.78
2023-01-09T14:36:08.423Z,99853.28
2023-01-09T14:38:41.038Z,99864.53
2023-01-09T14:41:44.356Z,99861.94
2023-01-09T14:44:27.505Z,99879.31
2023-01-09T14:46:56.481Z,99883.78
2023-01-09T14:49:40.767Z,99893.34
2023-01-09T14:52:29.524Z,99896.84
2023-01-09T14:55:01.142Z,99907.91
2023-01-09T14:57:31.609Z,99908.72
2023-01-09T15:00:14.499Z,99915.56
2023-01-09T15:02:42.550Z,99914.84
2023-01-09T15:05:13.506Z,99920.88
2023-01-09T15:07:53.587Z,99934.69
2023-01-09T15:10:21.937Z,99934.13
2023-01-09T15:12:51.619Z,99936.63
2023-01-09T15:15:20.738Z,99947.84
2023-01-09T15:17:55.205Z,99957.44
2023-01-09T15:20:29.980Z,99956.63
2023-01-09T15:22:57.696Z,99965.06
2023-01-09T15:25:41.012Z,99969.34
2023-01-09T15:28:32.439Z,99972.81
2023-01-09T15:31:15.617Z,99982.38
2023-01-09T15:33:45.212Z,99974.56
2023-01-09T15:36:24.915Z,99986.78
2023-01-09T15:38:52.968Z,99986.84
2023-01-09T15:41:44.218Z,100000.72
2023-01-09T15:44:26.058Z,100007.78
2023-01-09T15:46:57.820Z,100014.81
2023-01-09T15:49:25.114Z,100019.97
2023-01-09T15:51:52.082Z,100020.03
2023-01-09T15:54:28.762Z,100023.47
2023-01-09T15:56:55.326Z,100036.38
2023-01-09T15:59:23.435Z,100042.47
2023-01-09T16:02:17.842Z,100051.88
2023-01-09T16:04:44.440Z,100056.41
2023-01-09T16:07:16.145Z,100056.47
2023-01-09T16:09:47.704Z,100063.31
2023-01-09T16:12:19.501Z,100063.38
2023-01-09T16:14:51.365Z,100075.63
2023-01-09T16:17:20.265Z,100075.53
2023-01-09T16:19:55.773Z,100086.88
2023-01-09T16:22:31.033Z,100085.25
2023-01-09T16:25:03.558Z,100096.44
2023-01-09T16:27:34.353Z,100099.69
2023-01-09T16:30:04.404Z,100101.34
2023-01-09T16:32:33.808Z,100108.06
2023-01-09T16:35:06.723Z,100119.50
2023-01-09T16:37:33.923Z,100118.47
2023-01-09T16:40:12.632Z,100119.31
2023-01-09T16:42:57.796Z,100126.34
2023-01-09T16:45:26.834Z,100132.34
2023-01-09T16:47:53.679Z,100124.59
2023-01-09T16:50:21.495Z,100130.78
2023-01-09T16:52:47.997Z,100135.78
2023-01-09T16:55:14.564Z,100139.34
2023-01-09T16:57:41.932Z,100153.03
2023-01-09T17:00:18.379Z,100158.44
2023-01-09T17:02:45.442Z,100165.47
2023-01-09T17:05:12.214Z,100167.91
2023-01-09T17:07:38.925Z,100174.75
2023-01-09T17:10:06.387Z,100190.75
2023-01-09T17:12:32.869Z,100191.00
2023-01-09T17:15:01.426Z,100184.50
2023-01-09T17:17:27.940Z,100179.84
2023-01-09T17:19:54.433Z,100189.41
2023-01-09T17:22:20.968Z,100201.47
2023-01-09T17:25:08.715Z,100192.59
2023-01-09T17:27:56.659Z,100186.88
2023-01-09T17:30:23.156Z,100183.50
2023-01-09T17:32:52.000Z,100187.81
2023-01-09T17:35:18.573Z,100197.31
2023-01-09T17:37:45.076Z,100201.69
2023-01-09T17:40:23.176Z,100208.81
2023-01-09T17:42:49.689Z,100214.72
2023-01-09T17:45:16.235Z,100219.06
2023-01-09T17:47:42.899Z,100222.72
2023-01-09T17:50:31.163Z,100223.47
2023-01-09T17:52:57.662Z,100228.63
2023-01-09T17:55:26.787Z,100230.44
2023-01-09T17:57:53.488Z,100249.34
2023-01-09T18:00:27.536Z,100257.81
2023-01-09T18:02:55.474Z,100270.63
2023-01-09T18:05:24.297Z,100276.00
2023-01-09T18:07:51.255Z,100274.97
2023-01-09T18:10:20.603Z,100272.47
2023-01-09T18:12:50.154Z,100280.91
2023-01-09T18:15:16.904Z,100274.75
2023-01-09T18:17:43.710Z,100283.41
2023-01-09T18:20:10.797Z,100296.31
2023-01-09T18:22:37.804Z,100287.03
2023-01-09T18:25:04.943Z,100285.22
2023-01-09T18:27:31.687Z,100291.22
2023-01-09T18:30:01.702Z,100310.06
2023-01-09T18:32:32.169Z,100309.03
2023-01-09T18:34:58.723Z,100315.25
2023-01-09T18:37:25.239Z,100323.75
2023-01-09T18:39:51.759Z,100318.59
2023-01-09T18:42:18.334Z,100318.72
2023-01-09T18:44:44.814Z,100312.94
2023-01-09T18:47:11.563Z,100320.59
2023-01-09T18:49:38.410Z,100330.78
2023-01-09T18:52:07.475Z,100329.84
2023-01-09T18:54:38.228Z,100346.16
2023-01-09T18:57:04.969Z,100343.75
2023-01-09T18:59:33.951Z,100348.88
2023-01-09T19:02:02.202Z,100355.63
2023-01-09T19:04:29.078Z,100363.41
2023-01-09T19:06:57.190Z,100369.53
2023-01-09T19:09:23.913Z,100374.81
2023-01-09T19:11:50.447Z,100374.63
2023-01-09T19:14:17.148Z,100383.22
2023-01-09T19:16:43.790Z,100378.38
2023-01-09T19:19:10.707Z,100376.69
2023-01-09T19:21:37.372Z,100388.81
2023-01-09T19:24:04.153Z,100393.28
2023-01-09T19:26:31.202Z,100401.09
2023-01-09T19:29:09.410Z,100402.81
2023-01-09T19:31:36.349Z,100414.91
2023-01-09T19:34:02.982Z,100421.03
2023-01-09T19:36:29.618Z,100421.88
2023-01-09T19:39:00.988Z,100426.25
2023-01-09T19:41:28.682Z,100417.75
2023-01-09T19:43:55.279Z,100428.84
2023-01-09T19:46:24.340Z,100438.25
2023-01-09T19:48:54.473Z,100435.69
2023-01-09T19:51:22.244Z,100443.59
2023-01-09T19:54:03.443Z,100448.78
2023-01-09T19:56:32.156Z,100456.50
2023-01-09T19:59:00.999Z,100456.41
2023-01-09T20:01:33.375Z,100471.88
2023-01-09T20:04:07.549Z,100470.91
2023-01-09T20:06:35.572Z,100473.50
2023-01-09T20:09:04.404Z,100474.22
2023-01-09T20:11:32.432Z,100482.94
2023-01-09T20:13:59.080Z,100490.78
2023-01-09T20:16:28.635Z,100495.94
2023-01-09T20:18:58.719Z,100499.31
2023-01-09T20:21:28.573Z,100514.69
2023-01-09T20:23:58.738Z,100515.63
2023-01-09T20:26:26.554Z,100520.66
2023-01-09T20:28:53.751Z,100529.34
2023-01-09T20:31:22.089Z,100539.66
2023-01-09T20:33:49.401Z,100537.13
2023-01-09T20:36:15.998Z,100534.59
2023-01-09T20:38:44.871Z,100536.41
2023-01-09T20:41:22.611Z,100545.97
2023-01-09T20:43:55.664Z,100550.31
2023-01-09T20:46:24.286Z,100554.59
2023-01-09T20:48:50.875Z,100567.69
2023-01-09T20:51:18.019Z,100568.66
2023-01-09T20:53:46.003Z,100574.75
2023-01-09T20:56:13.020Z,100577.28
2023-01-09T20:58:42.256Z,100588.50
2023-01-09T21:01:11.731Z,100594.44
2023-01-09T21:03:38.854Z,100595.22
2023-01-09T21:06:07.720Z,100595.16
2023-01-09T21:08:34.892Z,100602.00
2023-01-09T21:11:02.466Z,100607.13
2023-01-09T21:13:29.503Z,100611.28
2023-01-09T21:16:24.538Z,100621.59
2023-01-09T21:19:00.041Z,100635.41
2023-01-09T21:21:29.452Z,100640.63
2023-01-09T21:23:58.324Z,100646.72
2023-01-09T21:26:37.188Z,100648.41
2023-01-09T21:29:08.349Z,100659.69
2023-01-09T21:31:35.443Z,100654.47
2023-01-09T21:34:04.917Z,100667.28
2023-01-09T21:36:32.100Z,100669.94
2023-01-09T21:38:59.600Z,100677.72
2023-01-09T21:41:44.412Z,100680.22
2023-01-09T21:44:32.420Z,100685.38
2023-01-09T21:47:00.330Z,100687.34
2023-01-09T21:49:29.676Z,100697.66
2023-01-09T21:51:56.224Z,100707.16
2023-01-09T21:54:24.334Z,100704.56
2023-01-09T21:56:51.918Z,100702.84
2023-01-09T21:59:19.408Z,100711.56
2023-01-09T22:01:46.275Z,100714.94
2023-01-09T22:04:15.174Z,100713.31
2023-01-09T22:06:42.403Z,100724.53
2023-01-09T22:09:10.184Z,100720.38
2023-01-09T22:11:40.006Z,100721.22
2023-01-09T22:14:06.975Z,100725.78
2023-01-09T22:16:33.876Z,100734.47
2023-01-09T22:19:00.702Z,100731.88
2023-01-09T22:21:29.850Z,100737.13
2023-01-09T22:23:56.606Z,100750.09
2023-01-09T22:26:23.712Z,100746.72
2023-01-09T22:28:50.985Z,100757.88
2023-01-09T22:31:20.258Z,100760.41
2023-01-09T22:33:55.117Z,100767.34
2023-01-09T22:36:21.633Z,100768.19
2023-01-09T22:38:48.178Z,100773.50
2023-01-09T22:41:15.172Z,100780.44
2023-01-09T22:43:44.012Z,100784.75
2023-01-09T22:46:11.865Z,100788.22
2023-01-09T22:48:39.408Z,100793.38
2023-01-09T22:51:12.312Z,100802.03
2023-01-09T22:53:39.580Z,100812.44
2023-01-09T22:56:08.481Z,100805.50
2023-01-09T22:58:35.011Z,100812.38
2023-01-09T23:01:02.993Z,100824.41
2023-01-09T23:03:29.643Z,100818.44
2023-01-09T23:06:04.671Z,100830.47
2023-01-09T23:08:32.276Z,100822.88
2023-01-09T23:10:59.370Z,100822.88
2023-01-09T23:13:26.165Z,100840.03
2023-01-09T23:16:01.744Z,100847.81
2023-01-09T23:18:30.940Z,100854.63
2023-01-09T23:21:00.580Z,100874.50
2023-01-09T23:23:29.655Z,100875.38
2023-01-09T23:26:02.447Z,100878.03
2023-01-09T23:28:30.607Z,100888.50
2023-01-09T23:30:57.298Z,100894.44
2023-01-09T23:33:23.929Z,100891.94
2023-01-09T23:35:50.519Z,100898.00
2023-01-09T23:38:17.047Z,100909.25
2023-01-09T23:40:46.337Z,100916.09
2023-01-09T23:43:16.948Z,100929.78
2023-01-09T23:45:45.134Z,100937.50
2023-01-09T23:48:16.764Z,100943.56
2023-01-09T23:50:48.286Z,100946.22
2023-01-09T23:53:15.044Z,100946.25
2023-01-09T23:55:41.684Z,100953.09
2023-01-09T23:58:08.457Z,100953.97
